sensor_id;sensor_type;location;lat;lon;timestamp;temperature;humidity
19862;DHT22;10093;48.148;8.542;2023-12-20T00:00:36;5.00;99.90
19862;DHT22;10093;48.148;8.542;2023-12-20T00:03:03;5.00;99.90
19862;DHT22;10093;48.148;8.542;2023-12-20T00:05:29;4.80;99.90
19862;DHT22;10093;48.148;8.542;2023-12-20T00:07:54;4.60;99.90
19862;DHT22;10093;48.148;8.542;2023-12-20T00:10:20;4.50;99.90
19862;DHT22;10093;48.148;8.542;2023-12-20T00:12:45;4.30;99.90
19862;DHT22;10093;48.148;8.542;2023-12-20T00:15:11;4.50;99.90
19862;DHT22;10093;48.148;8.542;2023-12-20T00:17:36;4.60;99.90
19862;DHT22;10093;48.148;8.542;2023-12-20T00:20:02;4.60;99.90
19862;DHT22;10093;48.148;8.542;2023-12-20T00:22:28;4.50;99.90
19862;DHT22;10093;48.148;8.542;2023-12-20T00:24:54;4.40;99.90
19862;DHT22;10093;48.148;8.542;2023-12-20T00:27:19;4.50;99.90
19862;DHT22;10093;48.148;8.542;2023-12-20T00:29:45;4.50;99.90
19862;DHT22;10093;48.148;8.542;2023-12-20T00:32:13;4.70;99.90
19862;DHT22;10093;48.148;8.542;2023-12-20T00:34:39;4.70;99.90
19862;DHT22;10093;48.148;8.542;2023-12-20T00:37:04;4.80;99.90
19862;DHT22;10093;48.148;8.542;2023-12-20T00:39:30;4.80;99.90
19862;DHT22;10093;48.148;8.542;2023-12-20T00:41:56;4.80;99.90
19862;DHT22;10093;48.148;8.542;2023-12-20T00:44:22;4.70;99.90
19862;DHT22;10093;48.148;8.542;2023-12-20T00:46:47;4.70;99.90
19862;DHT22;10093;48.148;8.542;2023-12-20T00:49:13;4.70;99.90
19862;DHT22;10093;48.148;8.542;2023-12-20T00:51:38;4.70;99.90
19862;DHT22;10093;48.148;8.542;2023-12-20T00:54:04;4.70;99.90
19862;DHT22;10093;48.148;8.542;2023-12-20T00:56:30;4.70;99.90
19862;DHT22;10093;48.148;8.542;2023-12-20T00:58:55;4.50;99.90
19862;DHT22;10093;48.148;8.542;2023-12-20T01:01:21;4.40;99.90
19862;DHT22;10093;48.148;8.542;2023-12-20T01:03:47;4.60;99.90
19862;DHT22;10093;48.148;8.542;2023-12-20T01:06:13;4.60;99.90
19862;DHT22;10093;48.148;8.542;2023-12-20T01:08:39;4.60;99.90
19862;DHT22;10093;48.148;8.542;2023-12-20T01:11:05;4.60;99.90
19862;DHT22;10093;48.148;8.542;2023-12-20T01:13:31;4.60;99.90
19862;DHT22;10093;48.148;8.542;2023-12-20T01:15:59;4.70;99.90
19862;DHT22;10093;48.148;8.542;2023-12-20T01:18:28;4.60;99.90
19862;DHT22;10093;48.148;8.542;2023-12-20T01:20:53;4.70;99.90
19862;DHT22;10093;48.148;8.542;2023-12-20T01:23:19;4.70;99.90
19862;DHT22;10093;48.148;8.542;2023-12-20T01:25:45;4.60;99.90
19862;DHT22;10093;48.148;8.542;2023-12-20T01:28:10;4.50;99.90
19862;DHT22;10093;48.148;8.542;2023-12-20T01:30:36;4.20;99.90
19862;DHT22;10093;48.148;8.542;2023-12-20T01:33:01;4.30;99.90
19862;DHT22;10093;48.148;8.542;2023-12-20T01:35:27;4.10;99.90
19862;DHT22;10093;48.148;8.542;2023-12-20T01:37:53;4.10;99.90
19862;DHT22;10093;48.148;8.542;2023-12-20T01:40:22;4.00;99.90
19862;DHT22;10093;48.148;8.542;2023-12-20T01:42:57;3.90;99.90
19862;DHT22;10093;48.148;8.542;2023-12-20T01:45:22;4.10;99.90
19862;DHT22;10093;48.148;8.542;2023-12-20T01:47:48;4.00;99.90
19862;DHT22;10093;48.148;8.542;2023-12-20T01:50:14;4.00;99.90
19862;DHT22;10093;48.148;8.542;2023-12-20T01:52:41;3.90;99.90
19862;DHT22;10093;48.148;8.542;2023-12-20T01:55:07;3.90;99.90
19862;DHT22;10093;48.148;8.542;2023-12-20T01:57:42;4.00;99.90
19862;DHT22;10093;48.148;8.542;2023-12-20T02:00:08;3.90;99.90
19862;DHT22;10093;48.148;8.542;2023-12-20T02:02:37;3.90;99.90
19862;DHT22;10093;48.148;8.542;2023-12-20T02:05:05;3.90;99.90
19862;DHT22;10093;48.148;8.542;2023-12-20T02:07:31;4.00;99.90
19862;DHT22;10093;48.148;8.542;2023-12-20T02:09:57;4.00;99.90
19862;DHT22;10093;48.148;8.542;2023-12-20T02:12:22;4.00;99.90
19862;DHT22;10093;48.148;8.542;2023-12-20T02:14:49;3.90;99.90
19862;DHT22;10093;48.148;8.542;2023-12-20T02:17:15;3.90;99.90
19862;DHT22;10093;48.148;8.542;2023-12-20T02:19:41;3.90;99.90
19862;DHT22;10093;48.148;8.542;2023-12-20T02:22:12;3.90;99.90
19862;DHT22;10093;48.148;8.542;2023-12-20T02:24:38;3.90;99.90
19862;DHT22;10093;48.148;8.542;2023-12-20T02:27:06;3.80;99.90
19862;DHT22;10093;48.148;8.542;2023-12-20T02:29:33;3.90;99.90
19862;DHT22;10093;48.148;8.542;2023-12-20T02:31:59;3.90;99.90
19862;DHT22;10093;48.148;8.542;2023-12-20T02:34:24;3.90;99.90
19862;DHT22;10093;48.148;8.542;2023-12-20T02:36:50;3.80;99.90
19862;DHT22;10093;48.148;8.542;2023-12-20T02:39:16;3.80;99.90
19862;DHT22;10093;48.148;8.542;2023-12-20T02:41:41;3.80;99.90
19862;DHT22;10093;48.148;8.542;2023-12-20T02:44:07;3.80;99.90
19862;DHT22;10093;48.148;8.542;2023-12-20T02:46:32;3.80;99.90
19862;DHT22;10093;48.148;8.542;2023-12-20T02:48:58;3.90;99.90
19862;DHT22;10093;48.148;8.542;2023-12-20T02:51:23;4.00;99.90
19862;DHT22;10093;48.148;8.542;2023-12-20T02:53:49;3.90;99.90
19862;DHT22;10093;48.148;8.542;2023-12-20T02:56:15;3.80;99.90
19862;DHT22;10093;48.148;8.542;2023-12-20T02:58:40;3.80;99.90
19862;DHT22;10093;48.148;8.542;2023-12-20T03:01:06;3.90;99.90
19862;DHT22;10093;48.148;8.542;2023-12-20T03:03:32;3.90;99.90
19862;DHT22;10093;48.148;8.542;2023-12-20T03:05:57;3.90;99.90
19862;DHT22;10093;48.148;8.542;2023-12-20T03:08:23;4.00;99.90
19862;DHT22;10093;48.148;8.542;2023-12-20T03:10:48;4.00;99.90
19862;DHT22;10093;48.148;8.542;2023-12-20T03:13:14;4.00;99.90
19862;DHT22;10093;48.148;8.542;2023-12-20T03:15:43;4.20;99.90
19862;DHT22;10093;48.148;8.542;2023-12-20T03:18:08;4.30;99.90
19862;DHT22;10093;48.148;8.542;2023-12-20T03:20:34;4.40;99.90
19862;DHT22;10093;48.148;8.542;2023-12-20T03:23:00;4.40;99.90
19862;DHT22;10093;48.148;8.542;2023-12-20T03:25:26;4.40;99.90
19862;DHT22;10093;48.148;8.542;2023-12-20T03:27:52;4.30;99.90
19862;DHT22;10093;48.148;8.542;2023-12-20T03:30:18;4.40;99.90
19862;DHT22;10093;48.148;8.542;2023-12-20T03:32:44;4.40;99.90
19862;DHT22;10093;48.148;8.542;2023-12-20T03:35:09;4.40;99.90
19862;DHT22;10093;48.148;8.542;2023-12-20T03:37:35;4.40;99.90
19862;DHT22;10093;48.148;8.542;2023-12-20T03:40:01;4.30;99.90
19862;DHT22;10093;48.148;8.542;2023-12-20T03:42:27;4.30;99.90
19862;DHT22;10093;48.148;8.542;2023-12-20T03:44:53;4.20;99.90
19862;DHT22;10093;48.148;8.542;2023-12-20T03:47:18;4.40;99.90
19862;DHT22;10093;48.148;8.542;2023-12-20T03:49:44;4.20;99.90
19862;DHT22;10093;48.148;8.542;2023-12-20T03:52:10;4.20;99.90
19862;DHT22;10093;48.148;8.542;2023-12-20T03:54:35;4.30;99.90
19862;DHT22;10093;48.148;8.542;2023-12-20T03:57:01;4.40;99.90
19862;DHT22;10093;48.148;8.542;2023-12-20T03:59:27;4.40;99.90
19862;DHT22;10093;48.148;8.542;2023-12-20T04:01:52;4.40;99.90
19862;DHT22;10093;48.148;8.542;2023-12-20T04:04:19;4.40;99.90
19862;DHT22;10093;48.148;8.542;2023-12-20T04:06:44;4.40;99.90
19862;DHT22;10093;48.148;8.542;2023-12-20T04:09:10;4.30;99.90
19862;DHT22;10093;48.148;8.542;2023-12-20T04:11:36;4.40;99.90
19862;DHT22;10093;48.148;8.542;2023-12-20T04:14:02;4.30;99.90
19862;DHT22;10093;48.148;8.542;2023-12-20T04:16:28;4.10;99.90
19862;DHT22;10093;48.148;8.542;2023-12-20T04:18:53;4.20;99.90
19862;DHT22;10093;48.148;8.542;2023-12-20T04:21:19;4.30;99.90
19862;DHT22;10093;48.148;8.542;2023-12-20T04:23:45;4.30;99.90
19862;DHT22;10093;48.148;8.542;2023-12-20T04:26:16;4.30;99.90
19862;DHT22;10093;48.148;8.542;2023-12-20T04:28:58;4.20;99.90
19862;DHT22;10093;48.148;8.542;2023-12-20T04:31:23;4.20;99.90
19862;DHT22;10093;48.148;8.542;2023-12-20T04:33:49;4.20;99.90
19862;DHT22;10093;48.148;8.542;2023-12-20T04:36:14;4.20;99.90
19862;DHT22;10093;48.148;8.542;2023-12-20T04:38:40;4.10;99.90
19862;DHT22;10093;48.148;8.542;2023-12-20T04:41:06;4.00;99.90
19862;DHT22;10093;48.148;8.542;2023-12-20T04:43:31;4.00;99.90
19862;DHT22;10093;48.148;8.542;2023-12-20T04:45:57;3.90;99.90
19862;DHT22;10093;48.148;8.542;2023-12-20T04:48:23;3.80;99.90
19862;DHT22;10093;48.148;8.542;2023-12-20T04:50:48;3.80;99.90
19862;DHT22;10093;48.148;8.542;2023-12-20T04:53:14;3.80;99.90
19862;DHT22;10093;48.148;8.542;2023-12-20T04:55:39;3.70;99.90
19862;DHT22;10093;48.148;8.542;2023-12-20T04:58:05;3.70;99.90
19862;DHT22;10093;48.148;8.542;2023-12-20T05:00:31;3.70;99.90
19862;DHT22;10093;48.148;8.542;2023-12-20T05:02:56;3.70;99.90
19862;DHT22;10093;48.148;8.542;2023-12-20T05:05:22;3.70;99.90
19862;DHT22;10093;48.148;8.542;2023-12-20T05:07:47;3.70;99.90
19862;DHT22;10093;48.148;8.542;2023-12-20T05:10:13;3.70;99.90
19862;DHT22;10093;48.148;8.542;2023-12-20T05:12:39;3.60;99.90
19862;DHT22;10093;48.148;8.542;2023-12-20T05:15:06;3.50;99.90
19862;DHT22;10093;48.148;8.542;2023-12-20T05:17:32;3.40;99.90
19862;DHT22;10093;48.148;8.542;2023-12-20T05:19:57;3.30;99.90
19862;DHT22;10093;48.148;8.542;2023-12-20T05:22:23;3.20;99.90
19862;DHT22;10093;48.148;8.542;2023-12-20T05:24:48;3.10;99.90
19862;DHT22;10093;48.148;8.542;2023-12-20T05:27:14;3.00;99.90
19862;DHT22;10093;48.148;8.542;2023-12-20T05:29:40;3.00;99.90
19862;DHT22;10093;48.148;8.542;2023-12-20T05:32:05;3.00;99.90
19862;DHT22;10093;48.148;8.542;2023-12-20T05:34:31;3.00;99.90
19862;DHT22;10093;48.148;8.542;2023-12-20T05:36:58;3.00;99.90
19862;DHT22;10093;48.148;8.542;2023-12-20T05:39:23;3.20;99.90
19862;DHT22;10093;48.148;8.542;2023-12-20T05:41:49;3.10;99.90
19862;DHT22;10093;48.148;8.542;2023-12-20T05:44:14;3.10;99.90
19862;DHT22;10093;48.148;8.542;2023-12-20T05:46:40;3.10;99.90
19862;DHT22;10093;48.148;8.542;2023-12-20T05:49:06;3.20;99.90
19862;DHT22;10093;48.148;8.542;2023-12-20T05:51:32;3.40;99.90
19862;DHT22;10093;48.148;8.542;2023-12-20T05:53:58;3.50;99.90
19862;DHT22;10093;48.148;8.542;2023-12-20T05:56:24;3.40;99.90
19862;DHT22;10093;48.148;8.542;2023-12-20T05:58:52;3.30;99.90
19862;DHT22;10093;48.148;8.542;2023-12-20T06:01:18;3.30;99.90
19862;DHT22;10093;48.148;8.542;2023-12-20T06:03:44;3.20;99.90
19862;DHT22;10093;48.148;8.542;2023-12-20T06:06:11;3.00;99.90
19862;DHT22;10093;48.148;8.542;2023-12-20T06:08:38;2.90;99.90
19862;DHT22;10093;48.148;8.542;2023-12-20T06:11:04;3.00;99.90
19862;DHT22;10093;48.148;8.542;2023-12-20T06:13:30;3.10;99.90
19862;DHT22;10093;48.148;8.542;2023-12-20T06:15:56;3.10;99.90
19862;DHT22;10093;48.148;8.542;2023-12-20T06:18:22;3.10;99.90
19862;DHT22;10093;48.148;8.542;2023-12-20T06:20:47;3.10;99.90
19862;DHT22;10093;48.148;8.542;2023-12-20T06:23:13;3.00;99.90
19862;DHT22;10093;48.148;8.542;2023-12-20T06:25:38;3.00;99.90
19862;DHT22;10093;48.148;8.542;2023-12-20T06:28:04;3.10;99.90
19862;DHT22;10093;48.148;8.542;2023-12-20T06:30:30;3.00;99.90
19862;DHT22;10093;48.148;8.542;2023-12-20T06:32:58;3.10;99.90
19862;DHT22;10093;48.148;8.542;2023-12-20T06:35:24;3.20;99.90
19862;DHT22;10093;48.148;8.542;2023-12-20T06:37:49;3.20;99.90
19862;DHT22;10093;48.148;8.542;2023-12-20T06:40:15;3.20;99.90
19862;DHT22;10093;48.148;8.542;2023-12-20T06:42:41;3.20;99.90
19862;DHT22;10093;48.148;8.542;2023-12-20T06:45:07;3.20;99.90
19862;DHT22;10093;48.148;8.542;2023-12-20T06:47:33;3.20;99.90
19862;DHT22;10093;48.148;8.542;2023-12-20T06:49:58;3.20;99.90
19862;DHT22;10093;48.148;8.542;2023-12-20T06:52:24;3.10;99.90
19862;DHT22;10093;48.148;8.542;2023-12-20T06:54:49;3.10;99.90
19862;DHT22;10093;48.148;8.542;2023-12-20T06:57:15;3.10;99.90
19862;DHT22;10093;48.148;8.542;2023-12-20T06:59:41;3.00;99.90
19862;DHT22;10093;48.148;8.542;2023-12-20T07:02:08;3.00;99.90
19862;DHT22;10093;48.148;8.542;2023-12-20T07:04:35;3.00;99.90
19862;DHT22;10093;48.148;8.542;2023-12-20T07:07:04;3.00;99.90
19862;DHT22;10093;48.148;8.542;2023-12-20T07:09:29;3.10;99.90
19862;DHT22;10093;48.148;8.542;2023-12-20T07:11:55;3.10;99.90
19862;DHT22;10093;48.148;8.542;2023-12-20T07:14:20;3.20;99.90
19862;DHT22;10093;48.148;8.542;2023-12-20T07:16:46;3.10;99.90
19862;DHT22;10093;48.148;8.542;2023-12-20T07:19:11;3.10;99.90
19862;DHT22;10093;48.148;8.542;2023-12-20T07:21:37;3.10;99.90
19862;DHT22;10093;48.148;8.542;2023-12-20T07:24:03;3.10;99.90
19862;DHT22;10093;48.148;8.542;2023-12-20T07:26:28;3.10;99.90
19862;DHT22;10093;48.148;8.542;2023-12-20T07:28:54;3.10;99.90
19862;DHT22;10093;48.148;8.542;2023-12-20T07:31:19;3.10;99.90
19862;DHT22;10093;48.148;8.542;2023-12-20T07:33:45;3.20;99.90
19862;DHT22;10093;48.148;8.542;2023-12-20T07:36:12;3.10;99.90
19862;DHT22;10093;48.148;8.542;2023-12-20T07:38:37;3.10;99.90
19862;DHT22;10093;48.148;8.542;2023-12-20T07:41:03;3.20;99.90
19862;DHT22;10093;48.148;8.542;2023-12-20T07:43:28;3.20;99.90
19862;DHT22;10093;48.148;8.542;2023-12-20T07:45:54;3.40;99.90
19862;DHT22;10093;48.148;8.542;2023-12-20T07:48:19;3.40;99.90
19862;DHT22;10093;48.148;8.542;2023-12-20T07:50:45;3.40;99.90
19862;DHT22;10093;48.148;8.542;2023-12-20T07:53:11;3.40;99.90
19862;DHT22;10093;48.148;8.542;2023-12-20T07:55:36;3.40;99.90
19862;DHT22;10093;48.148;8.542;2023-12-20T07:58:02;3.40;99.90
19862;DHT22;10093;48.148;8.542;2023-12-20T08:00:28;3.30;99.90
19862;DHT22;10093;48.148;8.542;2023-12-20T08:02:53;3.50;99.90
19862;DHT22;10093;48.148;8.542;2023-12-20T08:05:19;3.50;99.90
19862;DHT22;10093;48.148;8.542;2023-12-20T08:07:44;3.70;99.90
19862;DHT22;10093;48.148;8.542;2023-12-20T08:10:10;3.70;99.90
19862;DHT22;10093;48.148;8.542;2023-12-20T08:12:36;3.90;99.90
19862;DHT22;10093;48.148;8.542;2023-12-20T08:15:02;4.20;99.90
19862;DHT22;10093;48.148;8.542;2023-12-20T08:17:29;4.10;99.90
19862;DHT22;10093;48.148;8.542;2023-12-20T08:19:54;4.20;99.90
19862;DHT22;10093;48.148;8.542;2023-12-20T08:22:20;4.30;99.90
19862;DHT22;10093;48.148;8.542;2023-12-20T08:24:46;4.10;99.90
19862;DHT22;10093;48.148;8.542;2023-12-20T08:27:11;4.00;99.90
19862;DHT22;10093;48.148;8.542;2023-12-20T08:29:37;3.80;99.90
19862;DHT22;10093;48.148;8.542;2023-12-20T08:32:02;3.80;99.90
19862;DHT22;10093;48.148;8.542;2023-12-20T08:34:28;3.80;99.90
19862;DHT22;10093;48.148;8.542;2023-12-20T08:36:54;3.80;99.90
19862;DHT22;10093;48.148;8.542;2023-12-20T08:39:19;3.90;99.90
19862;DHT22;10093;48.148;8.542;2023-12-20T08:41:45;3.90;99.90
19862;DHT22;10093;48.148;8.542;2023-12-20T08:44:10;3.80;99.90
19862;DHT22;10093;48.148;8.542;2023-12-20T08:46:36;4.00;99.90
19862;DHT22;10093;48.148;8.542;2023-12-20T08:49:02;4.20;99.90
19862;DHT22;10093;48.148;8.542;2023-12-20T08:51:28;4.40;99.90
19862;DHT22;10093;48.148;8.542;2023-12-20T08:53:54;4.40;99.90
19862;DHT22;10093;48.148;8.542;2023-12-20T08:56:20;4.40;99.90
19862;DHT22;10093;48.148;8.542;2023-12-20T08:58:46;4.50;99.90
19862;DHT22;10093;48.148;8.542;2023-12-20T09:01:12;4.70;99.90
19862;DHT22;10093;48.148;8.542;2023-12-20T09:03:39;4.90;99.90
19862;DHT22;10093;48.148;8.542;2023-12-20T09:06:05;5.00;99.90
19862;DHT22;10093;48.148;8.542;2023-12-20T09:08:30;4.90;99.90
19862;DHT22;10093;48.148;8.542;2023-12-20T09:10:56;4.80;99.90
19862;DHT22;10093;48.148;8.542;2023-12-20T09:13:22;5.00;99.90
19862;DHT22;10093;48.148;8.542;2023-12-20T09:15:54;5.10;99.90
19862;DHT22;10093;48.148;8.542;2023-12-20T09:18:20;5.10;99.90
19862;DHT22;10093;48.148;8.542;2023-12-20T09:20:45;5.10;99.90
19862;DHT22;10093;48.148;8.542;2023-12-20T09:23:11;5.00;99.90
19862;DHT22;10093;48.148;8.542;2023-12-20T09:25:37;4.80;99.90
19862;DHT22;10093;48.148;8.542;2023-12-20T09:28:02;5.00;99.90
19862;DHT22;10093;48.148;8.542;2023-12-20T09:30:28;4.80;99.90
19862;DHT22;10093;48.148;8.542;2023-12-20T09:32:55;4.90;99.90
19862;DHT22;10093;48.148;8.542;2023-12-20T09:35:21;5.00;99.90
19862;DHT22;10093;48.148;8.542;2023-12-20T09:37:46;5.10;99.90
19862;DHT22;10093;48.148;8.542;2023-12-20T09:40:13;5.30;99.90
19862;DHT22;10093;48.148;8.542;2023-12-20T09:45:13;5.50;99.90
19862;DHT22;10093;48.148;8.542;2023-12-20T09:47:40;5.50;99.90
19862;DHT22;10093;48.148;8.542;2023-12-20T09:50:06;5.60;99.90
19862;DHT22;10093;48.148;8.542;2023-12-20T09:52:33;5.90;99.90
19862;DHT22;10093;48.148;8.542;2023-12-20T09:55:00;6.40;99.90
19862;DHT22;10093;48.148;8.542;2023-12-20T09:57:27;7.00;99.90
19862;DHT22;10093;48.148;8.542;2023-12-20T09:59:52;7.00;99.90
19862;DHT22;10093;48.148;8.542;2023-12-20T10:02:19;6.90;99.90
19862;DHT22;10093;48.148;8.542;2023-12-20T10:04:49;7.00;99.90
19862;DHT22;10093;48.148;8.542;2023-12-20T10:07:15;7.50;99.90
19862;DHT22;10093;48.148;8.542;2023-12-20T10:09:42;8.40;99.90
19862;DHT22;10093;48.148;8.542;2023-12-20T10:12:07;8.60;99.90
19862;DHT22;10093;48.148;8.542;2023-12-20T10:14:33;8.50;99.90
19862;DHT22;10093;48.148;8.542;2023-12-20T10:17:03;7.90;99.90
19862;DHT22;10093;48.148;8.542;2023-12-20T10:19:29;7.30;99.90
19862;DHT22;10093;48.148;8.542;2023-12-20T10:21:55;7.10;99.90
19862;DHT22;10093;48.148;8.542;2023-12-20T10:24:21;6.70;99.90
19862;DHT22;10093;48.148;8.542;2023-12-20T10:26:46;6.10;99.90
19862;DHT22;10093;48.148;8.542;2023-12-20T10:29:12;6.20;99.90
19862;DHT22;10093;48.148;8.542;2023-12-20T10:31:37;7.40;99.90
19862;DHT22;10093;48.148;8.542;2023-12-20T10:34:07;9.10;99.90
19862;DHT22;10093;48.148;8.542;2023-12-20T10:36:33;9.70;99.90
19862;DHT22;10093;48.148;8.542;2023-12-20T10:39:00;8.80;99.90
19862;DHT22;10093;48.148;8.542;2023-12-20T10:41:31;7.70;99.90
19862;DHT22;10093;48.148;8.542;2023-12-20T10:44:01;7.00;99.90
19862;DHT22;10093;48.148;8.542;2023-12-20T10:46:27;7.30;99.90
19862;DHT22;10093;48.148;8.542;2023-12-20T10:48:57;7.50;99.90
19862;DHT22;10093;48.148;8.542;2023-12-20T10:51:24;7.90;99.90
19862;DHT22;10093;48.148;8.542;2023-12-20T10:53:52;7.80;99.90
19862;DHT22;10093;48.148;8.542;2023-12-20T10:56:19;7.60;99.90
19862;DHT22;10093;48.148;8.542;2023-12-20T10:58:46;7.30;99.90
19862;DHT22;10093;48.148;8.542;2023-12-20T11:01:13;7.00;99.90
19862;DHT22;10093;48.148;8.542;2023-12-20T11:03:52;7.30;99.90
19862;DHT22;10093;48.148;8.542;2023-12-20T11:08:58;8.30;99.90
19862;DHT22;10093;48.148;8.542;2023-12-20T11:14:19;7.70;99.90
19862;DHT22;10093;48.148;8.542;2023-12-20T11:16:45;7.30;99.90
19862;DHT22;10093;48.148;8.542;2023-12-20T11:19:11;8.10;99.90
19862;DHT22;10093;48.148;8.542;2023-12-20T11:21:39;9.20;99.90
19862;DHT22;10093;48.148;8.542;2023-12-20T11:24:05;10.20;99.90
19862;DHT22;10093;48.148;8.542;2023-12-20T11:26:31;10.80;99.90
19862;DHT22;10093;48.148;8.542;2023-12-20T11:37:40;11.00;99.90
19862;DHT22;10093;48.148;8.542;2023-12-20T11:40:15;11.00;99.90
19862;DHT22;10093;48.148;8.542;2023-12-20T11:42:43;11.10;99.90
19862;DHT22;10093;48.148;8.542;2023-12-20T11:45:10;10.90;99.90
19862;DHT22;10093;48.148;8.542;2023-12-20T11:47:36;11.10;99.90
19862;DHT22;10093;48.148;8.542;2023-12-20T11:50:01;10.60;99.90
19862;DHT22;10093;48.148;8.542;2023-12-20T11:52:29;9.80;99.90
19862;DHT22;10093;48.148;8.542;2023-12-20T11:54:56;8.50;99.90
19862;DHT22;10093;48.148;8.542;2023-12-20T11:57:22;7.50;99.90
19862;DHT22;10093;48.148;8.542;2023-12-20T11:59:48;6.50;99.90
19862;DHT22;10093;48.148;8.542;2023-12-20T12:02:13;6.00;99.90
19862;DHT22;10093;48.148;8.542;2023-12-20T12:04:41;5.70;99.90
19862;DHT22;10093;48.148;8.542;2023-12-20T12:07:07;5.40;99.90
19862;DHT22;10093;48.148;8.542;2023-12-20T12:09:33;5.60;99.90
19862;DHT22;10093;48.148;8.542;2023-12-20T12:11:59;6.30;99.90
19862;DHT22;10093;48.148;8.542;2023-12-20T12:14:25;7.50;99.90
19862;DHT22;10093;48.148;8.542;2023-12-20T12:16:51;7.10;99.90
19862;DHT22;10093;48.148;8.542;2023-12-20T12:19:22;6.80;99.90
19862;DHT22;10093;48.148;8.542;2023-12-20T12:22:10;7.00;99.90
19862;DHT22;10093;48.148;8.542;2023-12-20T12:24:39;7.30;99.90
19862;DHT22;10093;48.148;8.542;2023-12-20T12:27:06;8.20;99.90
19862;DHT22;10093;48.148;8.542;2023-12-20T12:29:32;8.10;99.90
19862;DHT22;10093;48.148;8.542;2023-12-20T12:31:58;7.40;99.90
19862;DHT22;10093;48.148;8.542;2023-12-20T12:34:24;6.60;99.90
19862;DHT22;10093;48.148;8.542;2023-12-20T12:36:52;6.40;99.90
19862;DHT22;10093;48.148;8.542;2023-12-20T12:39:18;5.70;99.90
19862;DHT22;10093;48.148;8.542;2023-12-20T12:41:44;5.20;99.90
19862;DHT22;10093;48.148;8.542;2023-12-20T12:44:09;5.00;99.90
19862;DHT22;10093;48.148;8.542;2023-12-20T12:46:35;5.00;99.90
19862;DHT22;10093;48.148;8.542;2023-12-20T12:49:01;5.10;99.90
19862;DHT22;10093;48.148;8.542;2023-12-20T12:51:27;5.10;99.90
19862;DHT22;10093;48.148;8.542;2023-12-20T12:53:53;5.10;99.90
19862;DHT22;10093;48.148;8.542;2023-12-20T12:56:18;5.00;99.90
19862;DHT22;10093;48.148;8.542;2023-12-20T12:58:44;5.00;99.90
19862;DHT22;10093;48.148;8.542;2023-12-20T13:01:10;5.00;99.90
19862;DHT22;10093;48.148;8.542;2023-12-20T13:03:36;5.00;99.90
19862;DHT22;10093;48.148;8.542;2023-12-20T13:06:01;5.00;99.90
19862;DHT22;10093;48.148;8.542;2023-12-20T13:08:28;5.00;99.90
19862;DHT22;10093;48.148;8.542;2023-12-20T13:10:55;5.00;99.90
19862;DHT22;10093;48.148;8.542;2023-12-20T13:13:21;4.80;99.90
19862;DHT22;10093;48.148;8.542;2023-12-20T13:15:46;4.80;99.90
19862;DHT22;10093;48.148;8.542;2023-12-20T13:18:17;4.70;99.90
19862;DHT22;10093;48.148;8.542;2023-12-20T13:20:44;4.70;99.90
19862;DHT22;10093;48.148;8.542;2023-12-20T13:23:09;4.70;99.90
19862;DHT22;10093;48.148;8.542;2023-12-20T13:25:35;4.80;99.90
19862;DHT22;10093;48.148;8.542;2023-12-20T13:28:01;4.90;99.90
19862;DHT22;10093;48.148;8.542;2023-12-20T13:30:28;4.80;99.90
19862;DHT22;10093;48.148;8.542;2023-12-20T13:32:53;4.70;99.90
19862;DHT22;10093;48.148;8.542;2023-12-20T13:35:19;4.10;99.90
19862;DHT22;10093;48.148;8.542;2023-12-20T13:37:46;3.90;99.90
19862;DHT22;10093;48.148;8.542;2023-12-20T13:40:11;3.70;99.90
19862;DHT22;10093;48.148;8.542;2023-12-20T13:42:40;3.60;99.90
19862;DHT22;10093;48.148;8.542;2023-12-20T13:45:07;3.50;99.90
19862;DHT22;10093;48.148;8.542;2023-12-20T13:47:33;3.30;99.90
19862;DHT22;10093;48.148;8.542;2023-12-20T13:49:59;3.20;99.90
19862;DHT22;10093;48.148;8.542;2023-12-20T13:52:24;3.20;99.90
19862;DHT22;10093;48.148;8.542;2023-12-20T13:54:50;3.10;99.90
19862;DHT22;10093;48.148;8.542;2023-12-20T13:57:15;3.10;99.90
19862;DHT22;10093;48.148;8.542;2023-12-20T13:59:41;3.70;99.90
19862;DHT22;10093;48.148;8.542;2023-12-20T14:02:07;4.90;99.90
19862;DHT22;10093;48.148;8.542;2023-12-20T14:04:33;6.00;99.90
19862;DHT22;10093;48.148;8.542;2023-12-20T14:06:58;6.70;99.90
19862;DHT22;10093;48.148;8.542;2023-12-20T14:09:24;6.90;99.90
19862;DHT22;10093;48.148;8.542;2023-12-20T14:11:50;7.00;99.90
19862;DHT22;10093;48.148;8.542;2023-12-20T14:14:16;6.60;99.90
19862;DHT22;10093;48.148;8.542;2023-12-20T14:16:41;6.60;99.90
19862;DHT22;10093;48.148;8.542;2023-12-20T14:19:10;5.90;99.90
19862;DHT22;10093;48.148;8.542;2023-12-20T14:21:36;6.10;99.90
19862;DHT22;10093;48.148;8.542;2023-12-20T14:24:02;6.30;99.90
19862;DHT22;10093;48.148;8.542;2023-12-20T14:26:29;6.10;99.90
19862;DHT22;10093;48.148;8.542;2023-12-20T14:28:55;5.50;99.90
19862;DHT22;10093;48.148;8.542;2023-12-20T14:31:21;5.70;99.90
19862;DHT22;10093;48.148;8.542;2023-12-20T14:33:48;5.90;99.90
19862;DHT22;10093;48.148;8.542;2023-12-20T14:36:16;6.20;99.90
19862;DHT22;10093;48.148;8.542;2023-12-20T14:38:43;6.20;99.90
19862;DHT22;10093;48.148;8.542;2023-12-20T14:41:09;6.20;99.90
19862;DHT22;10093;48.148;8.542;2023-12-20T14:43:35;6.00;99.90
19862;DHT22;10093;48.148;8.542;2023-12-20T14:46:00;5.70;99.90
19862;DHT22;10093;48.148;8.542;2023-12-20T14:48:26;5.80;99.90
19862;DHT22;10093;48.148;8.542;2023-12-20T14:50:55;5.80;99.90
19862;DHT22;10093;48.148;8.542;2023-12-20T14:53:21;5.40;99.90
19862;DHT22;10093;48.148;8.542;2023-12-20T14:55:46;5.30;99.90
19862;DHT22;10093;48.148;8.542;2023-12-20T14:58:12;5.00;99.90
19862;DHT22;10093;48.148;8.542;2023-12-20T15:00:38;4.70;99.90
19862;DHT22;10093;48.148;8.542;2023-12-20T15:03:04;4.70;99.90
19862;DHT22;10093;48.148;8.542;2023-12-20T15:05:31;4.50;99.90
19862;DHT22;10093;48.148;8.542;2023-12-20T15:07:56;4.30;99.90
19862;DHT22;10093;48.148;8.542;2023-12-20T15:10:22;4.10;99.90
19862;DHT22;10093;48.148;8.542;2023-12-20T15:12:48;4.00;99.90
19862;DHT22;10093;48.148;8.542;2023-12-20T15:15:14;3.90;99.90
19862;DHT22;10093;48.148;8.542;2023-12-20T15:17:39;3.90;99.90
19862;DHT22;10093;48.148;8.542;2023-12-20T15:20:05;3.80;99.90
19862;DHT22;10093;48.148;8.542;2023-12-20T15:22:31;3.70;99.90
19862;DHT22;10093;48.148;8.542;2023-12-20T15:24:59;3.70;99.90
19862;DHT22;10093;48.148;8.542;2023-12-20T15:27:26;3.60;99.90
19862;DHT22;10093;48.148;8.542;2023-12-20T15:29:53;3.60;99.90
19862;DHT22;10093;48.148;8.542;2023-12-20T15:32:19;3.60;99.90
19862;DHT22;10093;48.148;8.542;2023-12-20T15:34:45;3.60;99.90
19862;DHT22;10093;48.148;8.542;2023-12-20T15:37:11;3.60;99.90
19862;DHT22;10093;48.148;8.542;2023-12-20T15:39:37;3.60;99.90
19862;DHT22;10093;48.148;8.542;2023-12-20T15:42:02;3.50;99.90
19862;DHT22;10093;48.148;8.542;2023-12-20T15:44:28;3.50;99.90
19862;DHT22;10093;48.148;8.542;2023-12-20T15:46:53;3.50;99.90
19862;DHT22;10093;48.148;8.542;2023-12-20T15:49:19;3.50;99.90
19862;DHT22;10093;48.148;8.542;2023-12-20T15:51:45;3.50;99.90
19862;DHT22;10093;48.148;8.542;2023-12-20T15:54:11;3.50;99.90